Time;durP1;ratioP1;P1;durP2;ratioP2;P2;SDS_P1;SDS_P2;PMS_P1;PMS_P2;Temp;Humidity;BMP_temperature;BMP_pressure;BME280_temperature;BME280_humidity;BME280_pressure;Samples;Min_cycle;Max_cycle;Signal;HPM_P1;HPM_P2
2020/12/25 00:00:07;;;;;;;0.40;0.40;;;;;;;3.98;86.71;94643.38;4990526;28;20114;-70
2020/12/25 00:02:33;;;;;;;0.30;0.30;;;;;;;4.05;87.07;94665.69;4989423;28;20022;-70
2020/12/25 00:04:59;;;;;;;0.30;0.30;;;;;;;3.81;88.65;94660.31;4991341;28;20049;-70
2020/12/25 00:07:24;;;;;;;0.40;0.20;;;;;;;3.60;88.80;94664.91;4990756;28;20038;-70
2020/12/25 00:09:49;;;;;;;0.17;0.17;;;;;;;3.79;87.23;94667.72;4990533;28;20026;-70
2020/12/25 00:12:14;;;;;;;0.13;0.13;;;;;;;3.80;87.07;94677.16;4990411;28;20415;-70
2020/12/25 00:14:40;;;;;;;0.32;0.30;;;;;;;3.60;88.20;94672.78;4990484;28;20042;-69
2020/12/25 00:17:05;;;;;;;0.10;0.10;;;;;;;3.40;87.23;94670.25;4992628;28;20109;-69
2020/12/25 00:19:30;;;;;;;0.25;0.25;;;;;;;3.20;87.80;94675.59;4990274;28;20039;-69
2020/12/25 00:21:55;;;;;;;0.10;0.10;;;;;;;3.23;86.92;94673.22;4990265;28;20050;-70
2020/12/25 00:24:21;;;;;;;0.30;0.30;;;;;;;3.21;87.83;94666.66;4990255;28;20042;-70
2020/12/25 00:26:46;;;;;;;0.63;0.30;;;;;;;3.17;88.88;94684.00;4990295;28;20112;-69
2020/12/25 00:29:11;;;;;;;0.40;0.30;;;;;;;3.41;87.92;94679.72;4991785;28;20038;-69
2020/12/25 00:31:40;;;;;;;0.20;0.20;;;;;;;3.39;87.47;94700.25;4990182;28;20081;-69
2020/12/25 00:34:08;;;;;;;0.40;0.40;;;;;;;3.38;88.07;94694.22;4990248;28;20043;-70
2020/12/25 00:36:39;;;;;;;0.30;0.30;;;;;;;3.67;87.32;94701.41;4990233;28;20042;-69
2020/12/25 00:39:07;;;;;;;1.00;0.47;;;;;;;3.70;87.15;94708.00;4989075;28;20065;-69
2020/12/25 00:41:32;;;;;;;0.40;0.40;;;;;;;3.63;86.78;94700.38;4989927;28;20448;-69
2020/12/25 00:43:58;;;;;;;0.30;0.30;;;;;;;3.76;86.66;94681.38;4991828;28;20105;-69
2020/12/25 00:46:24;;;;;;;0.32;0.30;;;;;;;3.71;86.33;94673.53;4989914;28;20081;-69
2020/12/25 00:48:49;;;;;;;0.50;0.50;;;;;;;3.92;86.58;94697.88;4989711;28;20038;-70
2020/12/25 00:51:19;;;;;;;0.60;0.60;;;;;;;4.10;85.62;94704.34;4989652;28;20038;-69
2020/12/25 00:53:45;;;;;;;0.57;0.57;;;;;;;4.03;85.78;94688.06;4989546;28;20069;-70
2020/12/25 00:56:12;;;;;;;0.50;0.50;;;;;;;4.15;85.54;94705.09;4991764;28;20034;-70
2020/12/25 00:58:38;;;;;;;0.40;0.40;;;;;;;4.05;84.85;94684.13;4989465;28;20035;-70
2020/12/25 01:01:08;;;;;;;0.55;0.55;;;;;;;4.14;85.91;94708.78;4989786;28;20443;-69
2020/12/25 01:03:38;;;;;;;0.52;0.52;;;;;;;4.25;85.22;94698.19;4989604;28;20499;-70
2020/12/25 01:06:20;;;;;;;0.70;0.70;;;;;;;4.35;84.33;94711.25;4989391;28;20423;-70
2020/12/25 01:08:47;;;;;;;0.38;0.38;;;;;;;4.06;84.65;94690.94;4988916;28;20046;-69
2020/12/25 01:11:13;;;;;;;0.50;0.50;;;;;;;4.74;83.02;94708.59;4991445;28;20053;-69
2020/12/25 01:13:40;;;;;;;1.77;1.05;;;;;;;4.73;82.87;94706.25;4989929;28;20038;-70
2020/12/25 01:16:07;;;;;;;0.80;0.80;;;;;;;4.86;81.97;94710.84;4989594;28;20145;-70
2020/12/25 01:18:33;;;;;;;0.95;0.90;;;;;;;4.65;82.70;94726.84;4989177;28;20041;-70
2020/12/25 01:20:59;;;;;;;0.77;0.70;;;;;;;4.88;82.01;94714.00;4989634;28;20484;-70
2020/12/25 01:23:24;;;;;;;0.80;0.80;;;;;;;4.97;81.13;94722.88;4989225;28;20033;-69
2020/12/25 01:25:50;;;;;;;1.40;0.70;;;;;;;4.70;81.66;94710.97;4990007;28;20022;-69
2020/12/25 01:28:16;;;;;;;0.82;0.82;;;;;;;5.01;81.29;94733.63;4988880;28;20038;-71
2020/12/25 01:30:41;;;;;;;0.70;0.70;;;;;;;4.55;82.92;94729.53;4989326;28;20397;-72
2020/12/25 01:33:07;;;;;;;0.85;0.85;;;;;;;4.86;81.96;94738.00;4987857;28;20042;-70
2020/12/25 01:35:32;;;;;;;0.70;0.70;;;;;;;4.94;81.41;94715.53;4989383;28;20037;-71
2020/12/25 01:37:57;;;;;;;0.68;0.68;;;;;;;4.59;82.31;94725.31;4991053;28;20029;-70
2020/12/25 01:40:22;;;;;;;0.70;0.70;;;;;;;4.75;82.04;94714.63;4988923;28;20043;-70
2020/12/25 01:42:48;;;;;;;0.80;0.80;;;;;;;4.65;81.40;94689.16;4989074;28;20035;-70
2020/12/25 01:45:13;;;;;;;0.75;0.75;;;;;;;4.68;82.23;94730.78;4989322;28;20037;-69
2020/12/25 01:47:38;;;;;;;1.08;0.98;;;;;;;5.17;81.08;94743.78;4989277;28;20459;-69
2020/12/25 01:50:04;;;;;;;0.90;0.90;;;;;;;4.86;81.54;94726.66;5005913;28;20415;-70
2020/12/25 01:52:30;;;;;;;0.70;0.70;;;;;;;4.83;81.88;94740.41;4989050;28;20044;-69
2020/12/25 01:54:56;;;;;;;1.17;1.08;;;;;;;4.89;81.92;94742.72;4989181;28;20034;-70
2020/12/25 01:57:22;;;;;;;1.30;1.30;;;;;;;4.87;82.20;94733.53;4987889;28;20041;-69
2020/12/25 01:59:49;;;;;;;1.05;1.05;;;;;;;4.68;82.51;94731.56;4988897;28;20038;-70
2020/12/25 02:02:16;;;;;;;1.10;1.10;;;;;;;4.68;82.45;94742.09;4987339;28;20022;-72
2020/12/25 02:04:42;;;;;;;1.10;1.10;;;;;;;4.49;83.66;94732.50;4971494;28;20496;-70
2020/12/25 02:07:07;;;;;;;0.98;0.98;;;;;;;4.86;82.53;94743.28;4969200;28;20039;-69
2020/12/25 02:09:32;;;;;;;1.40;1.23;;;;;;;4.88;81.13;94729.81;4980017;28;20049;-70
2020/12/25 02:11:57;;;;;;;1.10;1.10;;;;;;;4.85;81.67;94725.88;4987534;28;20042;-70
2020/12/25 02:14:23;;;;;;;1.20;1.10;;;;;;;5.04;80.77;94736.50;4988925;28;20026;-70
2020/12/25 02:16:48;;;;;;;1.45;1.42;;;;;;;4.85;82.72;94746.16;4991053;28;20050;-69
2020/12/25 02:19:14;;;;;;;1.02;1.02;;;;;;;4.18;86.26;94749.28;4987507;28;20041;-69
2020/12/25 02:21:39;;;;;;;1.33;1.20;;;;;;;4.02;86.39;94742.56;4990994;28;20058;-70
2020/12/25 02:24:05;;;;;;;1.80;1.70;;;;;;;4.22;86.78;94733.75;5007681;28;20507;-70
2020/12/25 02:26:30;;;;;;;1.60;1.42;;;;;;;4.15;87.11;94749.84;4992638;28;20037;-70
2020/12/25 02:28:56;;;;;;;2.00;1.90;;;;;;;4.02;87.31;94734.66;4994062;28;20427;-71
2020/12/25 02:31:22;;;;;;;1.90;1.80;;;;;;;3.77;88.30;94730.31;4992306;28;20396;-71
2020/12/25 02:33:47;;;;;;;1.88;1.77;;;;;;;3.98;88.67;94741.50;4992305;28;20039;-71
2020/12/25 02:36:15;;;;;;;2.30;2.10;;;;;;;3.81;89.65;94751.59;4990982;28;20734;-69
2020/12/25 02:38:40;;;;;;;2.75;2.55;;;;;;;3.96;89.58;94740.22;4990380;28;20088;-69
2020/12/25 02:41:05;;;;;;;2.78;2.58;;;;;;;4.09;89.47;94747.50;4994186;28;20109;-70
2020/12/25 02:43:31;;;;;;;3.45;3.25;;;;;;;4.23;88.50;94753.75;4990593;28;20050;-70
2020/12/25 02:45:56;;;;;;;3.70;3.40;;;;;;;3.88;88.97;94759.97;4990814;28;20038;-70
2020/12/25 02:48:21;;;;;;;4.13;3.70;;;;;;;3.73;89.67;94752.94;4990579;28;20041;-71
2020/12/25 02:50:47;;;;;;;1.98;1.88;;;;;;;3.44;90.16;94762.53;4990662;28;20611;-70
2020/12/25 02:53:13;;;;;;;1.70;1.60;;;;;;;3.26;89.61;94756.78;4993563;28;20023;-70
2020/12/25 02:55:38;;;;;;;1.08;1.08;;;;;;;3.08;90.47;94786.28;4992012;28;20034;-69
2020/12/25 02:58:03;;;;;;;0.90;0.90;;;;;;;2.90;89.69;94810.44;4991904;28;20069;-69
2020/12/25 03:00:28;;;;;;;1.60;1.50;;;;;;;2.75;89.70;94782.34;4991699;28;20093;-71
2020/12/25 03:02:54;;;;;;;1.00;1.00;;;;;;;2.58;89.83;94780.78;4990814;28;20396;-76
2020/12/25 03:05:19;;;;;;;1.30;1.20;;;;;;;2.32;91.29;94766.06;4992487;28;20030;-75
2020/12/25 03:07:45;;;;;;;1.67;1.58;;;;;;;2.49;91.23;94805.97;4995320;28;20480;-77
2020/12/25 03:10:10;;;;;;;1.27;1.25;;;;;;;2.19;90.96;94792.78;4990893;28;20054;-72
2020/12/25 03:12:35;;;;;;;1.00;0.93;;;;;;;1.90;90.85;94766.25;4990846;28;20038;-73
2020/12/25 03:15:01;;;;;;;1.80;1.70;;;;;;;2.44;90.68;94828.78;4991210;28;20038;-76
2020/12/25 03:17:26;;;;;;;0.90;0.90;;;;;;;2.16;90.38;94814.31;4992809;28;20022;-77
2020/12/25 03:19:51;;;;;;;1.00;1.00;;;;;;;2.17;91.06;94832.41;4993538;28;20102;-72
2020/12/25 03:22:16;;;;;;;1.35;0.68;;;;;;;2.19;91.06;94838.19;4992293;28;20034;-71
2020/12/25 03:24:42;;;;;;;0.47;0.47;;;;;;;1.93;91.09;94842.56;4991787;28;20532;-74
2020/12/25 03:27:07;;;;;;;0.77;0.77;;;;;;;1.94;91.37;94846.75;4991777;28;20050;-73
2020/12/25 03:29:33;;;;;;;0.55;0.55;;;;;;;1.81;91.54;94852.47;4991492;28;20034;-74
2020/12/25 03:31:58;;;;;;;0.82;0.82;;;;;;;2.00;91.50;94861.50;4992589;28;20022;-75
2020/12/25 03:34:23;;;;;;;0.68;0.68;;;;;;;1.91;91.07;94841.25;4992025;28;20302;-75
2020/12/25 03:36:49;;;;;;;0.52;0.52;;;;;;;1.86;91.87;94870.06;4990436;28;20547;-71
2020/12/25 03:39:15;;;;;;;0.28;0.28;;;;;;;1.55;91.64;94854.19;5006144;28;20038;-71
2020/12/25 03:41:40;;;;;;;0.75;0.75;;;;;;;1.53;91.06;94862.28;4989926;28;20038;-73
2020/12/25 03:44:05;;;;;;;0.52;0.52;;;;;;;1.61;91.00;94875.97;4992772;28;20066;-74
2020/12/25 03:46:35;;;;;;;0.50;0.50;;;;;;;1.67;90.32;94885.44;4991492;28;20043;-74
2020/12/25 03:49:02;;;;;;;0.50;0.50;;;;;;;1.48;91.25;94892.91;4991295;28;20050;-75
2020/12/25 03:51:27;;;;;;;0.25;0.25;;;;;;;1.34;91.75;94870.84;4991696;28;20048;-76
2020/12/25 03:53:52;;;;;;;0.30;0.30;;;;;;;1.23;92.63;94891.72;4991545;28;20125;-74
2020/12/25 03:56:18;;;;;;;0.30;0.30;;;;;;;1.25;92.26;94896.72;4990587;28;20060;-74
2020/12/25 03:58:43;;;;;;;0.45;0.45;;;;;;;1.36;92.50;94911.47;4991001;28;20376;-74
2020/12/25 04:01:08;;;;;;;0.93;0.93;;;;;;;1.38;92.53;94919.84;4990462;28;20049;-73
2020/12/25 04:03:34;;;;;;;0.30;0.30;;;;;;;0.96;92.36;94870.03;4980314;28;20062;-74
2020/12/25 04:05:59;;;;;;;0.70;0.70;;;;;;;1.11;92.88;94903.41;4977868;28;20034;-75
2020/12/25 04:08:24;;;;;;;0.20;0.17;;;;;;;1.12;93.63;94946.88;4990006;28;20064;-74
2020/12/25 04:10:50;;;;;;;0.57;0.57;;;;;;;1.13;93.26;94924.91;4993268;28;20077;-74
2020/12/25 04:13:15;;;;;;;0.10;0.10;;;;;;;0.88;93.38;94938.56;5005964;28;20152;-74
2020/12/25 04:15:40;;;;;;;0.30;0.30;;;;;;;0.93;93.55;94955.13;4991397;28;20077;-74
2020/12/25 04:18:05;;;;;;;0.40;0.40;;;;;;;0.88;93.38;94947.22;4991479;28;20042;-73
2020/12/25 04:20:31;;;;;;;0.60;0.60;;;;;;;1.04;93.68;94974.34;4991159;28;20026;-75
2020/12/25 04:22:57;;;;;;;0.50;0.50;;;;;;;1.02;93.08;94951.03;4993389;28;20057;-74
2020/12/25 04:25:22;;;;;;;0.28;0.28;;;;;;;0.70;93.48;94965.88;4991396;28;20058;-73
2020/12/25 04:27:47;;;;;;;0.40;0.40;;;;;;;0.55;93.78;94939.53;4991377;28;20643;-74
2020/12/25 04:30:12;;;;;;;0.57;0.57;;;;;;;0.90;93.84;94984.41;4989810;28;20035;-74
2020/12/25 04:32:38;;;;;;;1.08;1.02;;;;;;;0.83;93.50;94965.50;4991206;28;20034;-76
2020/12/25 04:35:03;;;;;;;0.80;0.80;;;;;;;0.83;94.10;94994.31;4993370;28;20105;-75
2020/12/25 04:37:28;;;;;;;0.68;0.68;;;;;;;0.78;94.11;94991.63;4991370;28;20042;-75
2020/12/25 04:39:54;;;;;;;1.10;1.00;;;;;;;0.81;93.72;94988.50;4991277;28;20062;-75
2020/12/25 04:42:19;;;;;;;1.25;1.20;;;;;;;0.82;93.69;94990.09;4991132;28;20104;-76
2020/12/25 04:44:45;;;;;;;0.95;0.95;;;;;;;0.69;94.92;95022.69;4990862;28;20115;-76
2020/12/25 04:47:11;;;;;;;1.00;0.93;;;;;;;0.52;94.97;94996.56;4993060;28;20042;-75
2020/12/25 04:49:37;;;;;;;2.20;2.00;;;;;;;0.62;94.90;95000.34;4989323;28;20069;-76
2020/12/25 04:52:07;;;;;;;1.10;1.00;;;;;;;0.39;95.38;95002.16;4990826;28;20045;-76
2020/12/25 04:54:33;;;;;;;3.00;2.70;;;;;;;0.71;95.27;95031.06;4989626;28;20146;-74
2020/12/25 04:56:59;;;;;;;2.35;1.98;;;;;;;0.50;95.26;95024.00;4999795;28;20129;-75
2020/12/25 04:59:31;;;;;;;1.88;1.40;;;;;;;0.52;95.68;95046.31;4972077;28;20055;-75
2020/12/25 05:01:59;;;;;;;2.60;1.83;;;;;;;0.50;95.62;95039.72;4992274;28;20105;-75
2020/12/25 05:04:24;;;;;;;4.10;2.60;;;;;;;0.57;95.50;95045.56;4989756;28;20508;-73
2020/12/25 05:06:51;;;;;;;2.40;2.05;;;;;;;0.47;95.89;95050.69;4989757;28;20049;-71
2020/12/25 05:09:17;;;;;;;2.08;1.50;;;;;;;0.36;96.41;95073.31;4989515;28;20038;-72
2020/12/25 05:11:42;;;;;;;3.25;2.90;;;;;;;0.44;97.00;95070.25;4988313;28;20104;-72
2020/12/25 05:14:08;;;;;;;3.05;2.28;;;;;;;0.28;96.67;95052.78;4991703;28;20026;-74
2020/12/25 05:16:33;;;;;;;4.55;3.13;;;;;;;0.45;96.87;95065.81;4989951;28;20431;-73
2020/12/25 05:18:59;;;;;;;2.75;2.38;;;;;;;0.34;96.96;95056.25;4989479;28;20031;-70
2020/12/25 05:21:24;;;;;;;3.75;2.70;;;;;;;0.08;97.33;95029.75;4988301;28;20031;-72
2020/12/25 05:23:50;;;;;;;2.00;1.23;;;;;;;0.25;97.33;95067.13;4989472;28;20043;-70
2020/12/25 05:26:16;;;;;;;3.03;2.40;;;;;;;0.42;97.03;95088.03;4988218;28;20156;-69
2020/12/25 05:28:51;;;;;;;4.43;2.30;;;;;;;0.42;96.63;95095.09;4991204;28;20027;-70
2020/12/25 05:31:17;;;;;;;5.55;3.60;;;;;;;0.56;95.85;95071.97;4989319;28;20030;-69
2020/12/25 05:33:43;;;;;;;5.13;3.22;;;;;;;0.35;96.79;95076.94;4989680;28;20173;-70
2020/12/25 05:36:10;;;;;;;6.93;4.05;;;;;;;0.40;96.07;95071.78;4989570;28;20137;-71
2020/12/25 05:38:37;;;;;;;4.25;3.08;;;;;;;0.29;96.78;95079.72;4989394;28;20756;-70
2020/12/25 05:41:04;;;;;;;4.63;3.15;;;;;;;0.36;97.08;95096.84;4991639;28;20031;-72
2020/12/25 05:43:29;;;;;;;6.00;3.65;;;;;;;0.38;97.44;95091.38;4989172;28;20039;-71
2020/12/25 05:45:55;;;;;;;6.47;4.82;;;;;;;0.36;97.65;95096.84;4988119;28;20050;-72
2020/12/25 05:48:20;;;;;;;3.72;2.60;;;;;;;0.31;97.50;95109.03;4987938;28;20403;-72
2020/12/25 05:50:46;;;;;;;8.50;5.03;;;;;;;0.36;97.39;95091.63;4989621;28;20133;-72
2020/12/25 05:53:12;;;;;;;6.90;4.85;;;;;;;0.62;96.87;95108.47;4989885;28;20022;-74
2020/12/25 05:55:38;;;;;;;3.10;2.65;;;;;;;0.45;96.98;95118.94;4991893;28;20105;-69
2020/12/25 05:58:05;;;;;;;4.90;2.45;;;;;;;0.36;97.42;95127.44;4993447;28;20042;-72
2020/12/25 06:00:33;;;;;;;9.55;6.18;;;;;;;0.64;96.39;95123.91;4991709;28;20034;-71
2020/12/25 06:02:59;;;;;;;11.00;4.57;;;;;;;0.41;96.93;95111.81;4993509;28;20050;-72
2020/12/25 06:05:26;;;;;;;5.38;3.03;;;;;;;0.50;96.55;95137.31;4993326;28;20026;-71
2020/12/25 06:07:53;;;;;;;9.60;4.53;;;;;;;0.48;96.62;95131.56;5009884;28;20477;-72
2020/12/25 06:10:21;;;;;;;9.60;5.13;;;;;;;0.47;96.50;95135.22;4992989;28;20048;-73
2020/12/25 06:12:47;;;;;;;6.80;4.43;;;;;;;0.34;97.34;95135.53;5008302;28;20046;-71
2020/12/25 06:15:24;;;;;;;8.40;5.15;;;;;;;0.42;97.17;95140.38;4991892;28;20038;-71
2020/12/25 06:18:03;;;;;;;6.65;4.10;;;;;;;0.42;97.50;95139.59;4993063;28;20042;-73
2020/12/25 06:20:36;;;;;;;11.73;5.85;;;;;;;0.44;97.38;95146.16;4992968;28;20045;-72
2020/12/25 06:23:04;;;;;;;9.95;4.95;;;;;;;0.43;96.86;95136.72;4993548;28;20030;-72
2020/12/25 06:25:29;;;;;;;9.43;5.65;;;;;;;0.50;96.54;95131.31;4992854;28;20050;-75
2020/12/25 06:27:57;;;;;;;10.85;4.95;;;;;;;0.43;96.62;95141.94;4992976;28;20039;-74
2020/12/25 06:30:24;;;;;;;10.90;5.97;;;;;;;0.60;96.98;95164.69;4991224;28;20124;-72
2020/12/25 06:32:52;;;;;;;13.05;6.88;;;;;;;0.67;96.29;95152.25;4991533;28;20057;-72
2020/12/25 06:35:27;;;;;;;11.25;6.10;;;;;;;0.51;96.07;95144.19;4991642;28;20026;-74
2020/12/25 06:37:52;;;;;;;8.77;5.45;;;;;;;0.52;96.12;95143.13;4994954;28;20026;-72
2020/12/25 06:40:23;;;;;;;10.63;6.80;;;;;;;0.84;95.87;95173.94;4992247;28;20125;-73
2020/12/25 06:42:48;;;;;;;12.32;6.45;;;;;;;0.93;95.17;95169.88;4992381;28;20053;-73
2020/12/25 06:45:13;;;;;;;4.00;2.35;;;;;;;0.62;95.02;95165.25;4992521;28;20117;-73
2020/12/25 06:47:40;;;;;;;10.05;4.03;;;;;;;0.64;95.47;95181.50;4992409;28;20046;-73
2020/12/25 06:50:14;;;;;;;7.25;4.80;;;;;;;0.72;95.45;95179.28;4992936;28;20058;-72
2020/12/25 06:52:54;;;;;;;8.45;5.20;;;;;;;0.81;95.35;95184.88;4991892;28;20396;-72
2020/12/25 06:55:21;;;;;;;8.30;5.53;;;;;;;0.67;95.97;95191.50;4975913;28;20500;-73
2020/12/25 06:57:46;;;;;;;5.30;3.22;;;;;;;0.55;95.97;95203.88;4973275;28;20031;-73
2020/12/25 07:00:12;;;;;;;5.50;3.53;;;;;;;0.48;95.72;95204.84;4979553;28;20034;-72
2020/12/25 07:02:41;;;;;;;7.68;4.63;;;;;;;0.38;95.86;95183.75;4991020;28;20053;-72
2020/12/25 07:05:07;;;;;;;4.80;3.95;;;;;;;0.54;96.09;95210.16;4993228;28;20396;-72
2020/12/25 07:07:33;;;;;;;7.30;5.25;;;;;;;0.59;96.12;95215.47;4992064;28;20062;-74
2020/12/25 07:10:07;;;;;;;6.45;4.57;;;;;;;0.63;95.58;95227.03;4990933;28;20074;-73
2020/12/25 07:12:32;;;;;;;10.95;6.75;;;;;;;0.84;95.13;95222.88;4990892;28;20043;-72
2020/12/25 07:14:57;;;;;;;3.45;2.53;;;;;;;0.55;94.65;95209.09;4992009;28;20117;-74
2020/12/25 07:17:23;;;;;;;8.27;5.80;;;;;;;0.56;95.28;95213.31;4992262;28;20034;-73
2020/12/25 07:19:48;;;;;;;11.15;7.10;;;;;;;0.75;95.42;95220.66;4993851;28;20073;-72
2020/12/25 07:22:13;;;;;;;9.35;5.32;;;;;;;0.78;94.89;95242.97;4990472;28;20053;-73
2020/12/25 07:24:40;;;;;;;11.68;7.45;;;;;;;0.93;94.50;95235.34;4992220;28;20416;-72
2020/12/25 07:27:07;;;;;;;11.57;7.47;;;;;;;0.80;94.83;95227.81;4991791;28;20096;-71
2020/12/25 07:29:32;;;;;;;7.53;5.80;;;;;;;0.85;94.94;95246.22;4991397;28;20487;-71
2020/12/25 07:31:58;;;;;;;11.32;6.60;;;;;;;0.70;94.92;95233.69;4992447;28;20061;-72
2020/12/25 07:34:25;;;;;;;6.90;5.38;;;;;;;0.58;94.65;95219.13;4991539;28;20070;-73
2020/12/25 07:36:55;;;;;;;11.45;6.93;;;;;;;0.96;94.59;95241.91;4992048;28;20050;-73
2020/12/25 07:39:21;;;;;;;12.32;8.02;;;;;;;1.17;94.02;95256.06;4991635;28;20544;-74
2020/12/25 07:41:47;;;;;;;12.07;6.95;;;;;;;1.01;93.98;95262.94;4991598;28;20053;-72
2020/12/25 07:44:12;;;;;;;10.23;7.05;;;;;;;0.96;93.71;95236.66;4992134;28;20033;-72
2020/12/25 07:46:39;;;;;;;10.88;6.57;;;;;;;0.89;93.79;95249.16;4988929;28;20042;-71
2020/12/25 07:49:06;;;;;;;10.20;7.25;;;;;;;0.76;94.49;95237.16;4990048;28;20038;-73
2020/12/25 07:51:33;;;;;;;5.32;4.20;;;;;;;0.74;93.52;95247.09;4991405;28;20038;-72
2020/12/25 07:53:59;;;;;;;8.65;5.88;;;;;;;0.94;93.95;95273.59;4991445;28;20042;-72
2020/12/25 07:56:30;;;;;;;10.23;6.57;;;;;;;1.05;94.13;95266.66;4991436;28;20046;-72
2020/12/25 07:58:56;;;;;;;13.23;6.63;;;;;;;0.87;94.09;95275.59;4991670;28;20062;-72
2020/12/25 08:01:24;;;;;;;11.40;5.80;;;;;;;0.87;93.56;95278.19;5005810;28;20141;-72
2020/12/25 08:03:52;;;;;;;10.73;7.43;;;;;;;1.12;93.68;95276.97;4991133;28;20142;-73
2020/12/25 08:06:19;;;;;;;16.75;8.65;;;;;;;1.42;92.66;95282.63;4991251;28;20046;-71
2020/12/25 08:08:46;;;;;;;11.50;7.70;;;;;;;0.96;92.85;95262.84;4990736;28;20041;-71
2020/12/25 08:11:14;;;;;;;9.93;6.90;;;;;;;1.22;92.60;95261.38;4992664;28;20034;-70
2020/12/25 08:13:41;;;;;;;9.15;7.10;;;;;;;1.16;92.30;95264.97;4991050;28;20054;-72
2020/12/25 08:16:07;;;;;;;5.28;3.25;;;;;;;0.90;92.64;95266.44;4989642;28;20049;-71
2020/12/25 08:18:32;;;;;;;8.65;6.30;;;;;;;0.98;92.52;95271.28;4988580;28;20508;-71
2020/12/25 08:21:00;;;;;;;10.25;7.57;;;;;;;1.22;92.80;95280.50;4990779;28;20049;-72
2020/12/25 08:23:26;;;;;;;11.65;8.43;;;;;;;1.22;92.28;95267.41;4988934;28;20065;-71
2020/12/25 08:25:54;;;;;;;8.50;7.07;;;;;;;1.32;91.84;95277.25;5007473;28;20389;-72
2020/12/25 08:28:22;;;;;;;10.32;8.15;;;;;;;1.39;92.03;95283.13;4988532;28;20440;-71
2020/12/25 08:30:48;;;;;;;10.63;8.27;;;;;;;1.59;91.11;95274.72;4990348;28;20507;-71
2020/12/25 08:33:25;;;;;;;7.95;6.78;;;;;;;1.41;91.02;95275.00;4988671;28;20046;-72
2020/12/25 08:35:50;;;;;;;10.98;8.25;;;;;;;1.73;90.77;95294.28;4990645;28;20044;-72
2020/12/25 08:38:16;;;;;;;6.10;4.75;;;;;;;1.23;90.93;95281.34;4990199;28;20027;-72
2020/12/25 08:40:43;;;;;;;10.95;6.13;;;;;;;1.44;90.70;95288.44;4992488;28;20615;-72
2020/12/25 08:43:16;;;;;;;8.18;7.07;;;;;;;2.02;89.32;95302.75;4988815;28;20412;-72
2020/12/25 08:45:58;;;;;;;6.78;6.03;;;;;;;1.90;89.30;95293.44;5006596;28;20053;-72
2020/12/25 08:48:23;;;;;;;6.25;5.20;;;;;;;1.78;88.93;95302.19;5000694;28;20042;-74
2020/12/25 08:50:49;;;;;;;5.88;5.28;;;;;;;1.70;89.26;95309.72;5010052;28;20403;-78
2020/12/25 08:53:22;;;;;;;7.07;5.88;;;;;;;1.67;89.69;95303.13;5012049;28;20057;-75
2020/12/25 08:55:55;;;;;;;7.18;5.93;;;;;;;2.00;88.49;95317.16;5011228;28;20041;-75
2020/12/25 08:58:24;;;;;;;4.53;4.13;;;;;;;1.86;89.28;95318.56;5010522;28;20122;-75
2020/12/25 09:00:59;;;;;;;4.45;4.05;;;;;;;1.97;89.16;95330.75;5010553;28;20057;-76
2020/12/25 09:03:41;;;;;;;5.10;4.60;;;;;;;1.74;89.32;95321.28;5025676;28;20117;-75
2020/12/25 09:06:08;;;;;;;6.70;3.83;;;;;;;1.81;89.52;95321.91;5010604;28;20125;-76
2020/12/25 09:08:34;;;;;;;3.13;2.83;;;;;;;1.47;89.11;95322.00;5010439;28;20038;-75
2020/12/25 09:10:59;;;;;;;4.78;4.32;;;;;;;1.74;90.10;95327.34;5012424;28;20463;-76
2020/12/25 09:13:24;;;;;;;3.10;2.90;;;;;;;1.55;89.59;95326.06;5010383;28;20046;-76
2020/12/25 09:15:50;;;;;;;3.60;3.30;;;;;;;1.64;89.49;95329.03;5009664;28;20096;-70
2020/12/25 09:18:15;;;;;;;4.85;4.30;;;;;;;1.82;89.82;95341.84;5010822;28;20080;-76
2020/12/25 09:20:40;;;;;;;3.65;3.33;;;;;;;2.13;88.88;95344.84;5010538;28;20046;-76
2020/12/25 09:23:06;;;;;;;3.58;3.28;;;;;;;2.35;87.74;95327.22;5027645;28;20037;-76
2020/12/25 09:25:31;;;;;;;4.32;3.30;;;;;;;2.16;88.34;95353.03;5010438;28;20046;-74
2020/12/25 09:27:57;;;;;;;3.75;3.17;;;;;;;2.07;88.57;95336.91;5008548;28;20034;-75
2020/12/25 09:30:22;;;;;;;3.22;3.00;;;;;;;2.27;87.67;95348.69;5013758;28;20037;-74
2020/12/25 09:32:47;;;;;;;3.30;2.38;;;;;;;2.08;87.21;95349.00;5031067;28;20070;-75
2020/12/25 09:35:12;;;;;;;3.03;2.65;;;;;;;2.14;87.30;95336.72;5032982;28;20491;-74
2020/12/25 09:37:39;;;;;;;2.80;2.60;;;;;;;2.57;85.97;95349.00;5016429;28;20042;-85
2020/12/25 09:40:04;;;;;;;2.58;2.38;;;;;;;2.00;86.17;95325.81;5016489;28;20037;-82
2020/12/25 09:42:30;;;;;;;3.25;2.95;;;;;;;2.47;86.76;95330.50;5016488;28;20083;-74
2020/12/25 09:44:55;;;;;;;2.55;2.25;;;;;;;2.15;86.42;95311.25;5016915;28;20041;-73
2020/12/25 09:47:20;;;;;;;2.30;2.10;;;;;;;2.52;86.64;95343.69;5031032;28;20038;-74
2020/12/25 09:49:46;;;;;;;3.58;2.10;;;;;;;2.15;85.50;95335.69;5032970;28;20388;-75
2020/12/25 09:52:11;;;;;;;2.67;2.47;;;;;;;3.02;84.89;95342.56;5015021;28;20129;-74
2020/12/25 09:54:36;;;;;;;2.60;2.40;;;;;;;2.80;84.25;95371.53;5030976;28;20120;-73
2020/12/25 09:57:02;;;;;;;4.18;2.28;;;;;;;2.68;84.38;95336.75;5015793;28;20034;-75
2020/12/25 09:59:27;;;;;;;2.17;2.08;;;;;;;2.59;84.38;95328.53;5015309;28;20029;-71
2020/12/25 10:01:53;;;;;;;2.58;2.35;;;;;;;3.10;84.38;95349.97;5016768;28;20523;-70
2020/12/25 10:04:19;;;;;;;2.60;2.40;;;;;;;2.86;83.49;95348.72;5015238;28;20129;-70
2020/12/25 10:06:44;;;;;;;1.98;1.67;;;;;;;2.74;84.33;95342.84;5030201;28;20048;-70
2020/12/25 10:09:10;;;;;;;2.30;2.10;;;;;;;3.04;82.77;95340.47;5014716;28;20030;-71
2020/12/25 10:11:35;;;;;;;2.10;1.90;;;;;;;3.25;82.78;95348.50;5015012;28;20077;-70
2020/12/25 10:14:00;;;;;;;3.83;2.00;;;;;;;2.97;81.19;95337.28;5017072;28;20060;-71
2020/12/25 10:16:25;;;;;;;1.90;1.80;;;;;;;2.56;83.30;95329.03;5014999;28;20037;-70
2020/12/25 10:18:51;;;;;;;2.00;1.90;;;;;;;2.96;84.05;95355.88;5030033;28;20092;-70
2020/12/25 10:21:17;;;;;;;2.20;1.50;;;;;;;2.39;84.13;95341.44;5015119;28;20038;-70
2020/12/25 10:23:43;;;;;;;2.45;1.60;;;;;;;2.32;84.83;95343.47;5014755;28;20399;-71
2020/12/25 10:26:10;;;;;;;2.30;1.90;;;;;;;2.97;83.70;95342.53;5016954;28;20034;-71
2020/12/25 10:28:35;;;;;;;1.63;1.52;;;;;;;2.89;82.84;95348.22;5014348;28;20037;-70
2020/12/25 10:31:01;;;;;;;1.90;1.80;;;;;;;2.98;82.45;95307.31;5030672;28;20046;-75
2020/12/25 10:33:26;;;;;;;4.13;2.03;;;;;;;2.74;82.61;95350.72;5029434;28;20420;-73
2020/12/25 10:35:51;;;;;;;1.85;1.75;;;;;;;2.84;81.68;95299.06;5015254;28;20037;-72
2020/12/25 10:38:16;;;;;;;2.30;2.10;;;;;;;2.90;82.88;95330.63;5015249;28;20108;-72
2020/12/25 10:40:42;;;;;;;2.75;2.10;;;;;;;2.40;85.15;95318.63;5016885;28;20502;-73
2020/12/25 10:43:07;;;;;;;2.10;2.00;;;;;;;2.32;84.63;95346.91;5012076;28;20034;-75
2020/12/25 10:45:32;;;;;;;2.00;1.90;;;;;;;2.34;84.93;95326.44;5013192;28;20042;-76
2020/12/25 10:47:57;;;;;;;2.50;2.15;;;;;;;3.00;83.40;95323.63;5029001;28;20033;-81
2020/12/25 10:50:23;;;;;;;3.10;2.13;;;;;;;3.41;82.30;95320.47;5028100;28;20026;-75
2020/12/25 10:52:48;;;;;;;1.90;1.80;;;;;;;2.74;81.44;95351.50;5028617;28;20606;-71
2020/12/25 10:55:13;;;;;;;1.55;1.45;;;;;;;2.64;82.44;95329.63;5011690;28;20439;-71
2020/12/25 10:57:39;;;;;;;1.65;1.55;;;;;;;3.40;80.88;95335.47;5011540;28;20089;-74
2020/12/25 11:00:04;;;;;;;1.58;1.48;;;;;;;2.48;81.33;95345.22;5011426;28;20510;-71
2020/12/25 11:02:29;;;;;;;1.63;1.52;;;;;;;2.57;81.00;95332.44;5011095;28;20109;-72
2020/12/25 11:04:55;;;;;;;1.73;1.60;;;;;;;2.19;81.60;95346.47;5013692;28;20097;-70
2020/12/25 11:07:20;;;;;;;1.70;1.60;;;;;;;2.04;82.05;95358.38;5026600;28;20534;-68
2020/12/25 11:09:45;;;;;;;1.30;1.30;;;;;;;2.02;82.65;95336.84;5011188;28;20133;-70
2020/12/25 11:12:10;;;;;;;2.30;2.10;;;;;;;2.27;82.67;95333.72;5011096;28;20120;-68
2020/12/25 11:14:36;;;;;;;2.03;1.83;;;;;;;3.08;81.18;95336.31;5011070;28;20088;-72
2020/12/25 11:17:01;;;;;;;1.92;1.83;;;;;;;3.17;80.81;95333.97;5028278;28;20034;-70
2020/12/25 11:19:26;;;;;;;2.38;2.28;;;;;;;2.62;81.48;95342.22;5010899;28;20058;-70
2020/12/25 11:21:52;;;;;;;1.60;1.50;;;;;;;2.19;80.73;95334.16;5009657;28;20042;-69
2020/12/25 11:24:17;;;;;;;2.35;2.15;;;;;;;1.89;83.37;95352.16;5026392;28;20034;-69
2020/12/25 11:26:42;;;;;;;2.30;2.10;;;;;;;2.65;81.67;95342.50;5010867;28;20454;-71
2020/12/25 11:29:09;;;;;;;2.63;2.42;;;;;;;2.78;81.63;95357.06;5012219;28;20594;-71
2020/12/25 11:31:36;;;;;;;2.53;2.33;;;;;;;2.98;80.88;95357.25;5011450;28;20038;-73
2020/12/25 11:34:02;;;;;;;3.97;3.13;;;;;;;2.81;81.29;95352.09;5009256;28;20038;-68
2020/12/25 11:36:29;;;;;;;2.85;2.65;;;;;;;2.68;81.69;95346.47;5010860;28;20052;-71